Nashville, Tennessee
Traffic Map
Current Weather Conditions
Nashville, Tennessee
Clear
Clear
70°
Feels Like: 70°
Wind Chill: 70° Ceiling: Unl
Heat Index: 70° Visibility: 10mi
Dew Point: 65° Wind: 0mph
Humidity: 84% Direction: ° ()
Pressure: 30.11in Gusts: 0mph
Raw Report DataKBNA 010753Z 00000KT 10SM CLR 21/18 A3011 RMK AO2 SLP190 T02110183
Traffic Incident Summary
Active as of:
Severity:
Category:
InformationThere was an issue retrieving the traffic information for this location. Please try a different location or try again shortly.
Advertisements
Track Severe Weather on mobile